sensor_id;sensor_type;location;lat;lon;timestamp;temperature;humidity
21085;DHT22;34247;50.064;19.970;2022-09-03T00:00:07;30.20;22.70
21085;DHT22;34247;50.064;19.970;2022-09-03T00:01:19;30.20;22.70
21085;DHT22;34247;50.064;19.970;2022-09-03T00:02:41;30.20;22.70
21085;DHT22;34247;50.064;19.970;2022-09-03T00:04:02;30.20;22.70
21085;DHT22;34247;50.064;19.970;2022-09-03T00:05:22;30.20;22.80
21085;DHT22;34247;50.064;19.970;2022-09-03T00:06:42;30.20;22.80
21085;DHT22;34247;50.064;19.970;2022-09-03T00:09:40;30.20;22.80
21085;DHT22;34247;50.064;19.970;2022-09-03T00:12:27;30.20;22.70
21085;DHT22;34247;50.064;19.970;2022-09-03T00:13:58;30.20;22.80
21085;DHT22;34247;50.064;19.970;2022-09-03T00:15:20;30.20;22.80
21085;DHT22;34247;50.064;19.970;2022-09-03T00:16:29;30.20;22.70
21085;DHT22;34247;50.064;19.970;2022-09-03T00:18:09;30.20;22.80
21085;DHT22;34247;50.064;19.970;2022-09-03T00:19:23;30.20;22.70
21085;DHT22;34247;50.064;19.970;2022-09-03T00:20:36;30.20;22.70
21085;DHT22;34247;50.064;19.970;2022-09-03T00:21:54;30.20;22.60
21085;DHT22;34247;50.064;19.970;2022-09-03T00:23:07;30.20;22.60
21085;DHT22;34247;50.064;19.970;2022-09-03T00:24:18;30.20;22.70
21085;DHT22;34247;50.064;19.970;2022-09-03T00:26:51;30.20;22.70
21085;DHT22;34247;50.064;19.970;2022-09-03T00:28:02;30.30;22.70
21085;DHT22;34247;50.064;19.970;2022-09-03T00:29:34;30.30;22.70
21085;DHT22;34247;50.064;19.970;2022-09-03T00:30:45;30.30;22.70
21085;DHT22;34247;50.064;19.970;2022-09-03T00:32:01;30.20;22.70
21085;DHT22;34247;50.064;19.970;2022-09-03T00:33:23;30.20;22.80
21085;DHT22;34247;50.064;19.970;2022-09-03T00:34:34;30.20;22.90
21085;DHT22;34247;50.064;19.970;2022-09-03T00:35:51;30.20;22.90
21085;DHT22;34247;50.064;19.970;2022-09-03T00:37:10;30.20;22.80
21085;DHT22;34247;50.064;19.970;2022-09-03T00:38:17;30.20;22.90
21085;DHT22;34247;50.064;19.970;2022-09-03T00:39:24;30.20;23.00
21085;DHT22;34247;50.064;19.970;2022-09-03T00:40:52;30.20;23.00
21085;DHT22;34247;50.064;19.970;2022-09-03T00:45:34;30.20;22.90
21085;DHT22;34247;50.064;19.970;2022-09-03T00:48:29;30.10;22.90
21085;DHT22;34247;50.064;19.970;2022-09-03T00:59:46;30.10;22.70
21085;DHT22;34247;50.064;19.970;2022-09-03T01:01:19;30.10;22.80
21085;DHT22;34247;50.064;19.970;2022-09-03T01:06:18;30.10;22.90
21085;DHT22;34247;50.064;19.970;2022-09-03T01:21:36;30.10;23.00
21085;DHT22;34247;50.064;19.970;2022-09-03T01:30:06;30.10;23.20
21085;DHT22;34247;50.064;19.970;2022-09-03T01:31:31;30.10;23.20
21085;DHT22;34247;50.064;19.970;2022-09-03T01:33:03;30.10;23.30
21085;DHT22;34247;50.064;19.970;2022-09-03T01:34:58;30.10;23.30
21085;DHT22;34247;50.064;19.970;2022-09-03T01:39:16;30.00;23.50
21085;DHT22;34247;50.064;19.970;2022-09-03T01:43:39;30.00;23.60
21085;DHT22;34247;50.064;19.970;2022-09-03T01:46:39;30.00;23.60
21085;DHT22;34247;50.064;19.970;2022-09-03T01:48:11;29.90;23.70
21085;DHT22;34247;50.064;19.970;2022-09-03T01:49:31;30.00;23.60
21085;DHT22;34247;50.064;19.970;2022-09-03T01:52:12;29.90;23.60
21085;DHT22;34247;50.064;19.970;2022-09-03T01:54:29;30.00;23.70
21085;DHT22;34247;50.064;19.970;2022-09-03T01:59:08;29.90;23.80
21085;DHT22;34247;50.064;19.970;2022-09-03T02:00:20;29.90;23.70
21085;DHT22;34247;50.064;19.970;2022-09-03T02:01:29;29.90;23.70
21085;DHT22;34247;50.064;19.970;2022-09-03T02:02:36;29.90;23.70
21085;DHT22;34247;50.064;19.970;2022-09-03T02:03:43;29.90;23.70
21085;DHT22;34247;50.064;19.970;2022-09-03T02:04:59;29.90;23.70
21085;DHT22;34247;50.064;19.970;2022-09-03T02:06:11;29.80;23.70
21085;DHT22;34247;50.064;19.970;2022-09-03T02:07:15;29.80;23.70
21085;DHT22;34247;50.064;19.970;2022-09-03T02:08:18;29.80;23.70
21085;DHT22;34247;50.064;19.970;2022-09-03T02:09:23;29.80;23.70
21085;DHT22;34247;50.064;19.970;2022-09-03T02:10:42;29.80;23.70
21085;DHT22;34247;50.064;19.970;2022-09-03T02:12:12;29.80;23.80
21085;DHT22;34247;50.064;19.970;2022-09-03T02:14:38;29.70;23.70
21085;DHT22;34247;50.064;19.970;2022-09-03T02:15:44;29.70;23.70
21085;DHT22;34247;50.064;19.970;2022-09-03T02:16:50;29.70;23.80
21085;DHT22;34247;50.064;19.970;2022-09-03T02:17:57;29.70;23.80
21085;DHT22;34247;50.064;19.970;2022-09-03T02:19:06;29.70;23.80
21085;DHT22;34247;50.064;19.970;2022-09-03T02:20:18;29.70;23.80
21085;DHT22;34247;50.064;19.970;2022-09-03T02:21:27;29.70;23.90
21085;DHT22;34247;50.064;19.970;2022-09-03T02:22:37;29.70;23.90
21085;DHT22;34247;50.064;19.970;2022-09-03T02:23:42;29.70;23.90
21085;DHT22;34247;50.064;19.970;2022-09-03T02:24:46;29.70;23.90
21085;DHT22;34247;50.064;19.970;2022-09-03T02:25:58;29.70;23.90
21085;DHT22;34247;50.064;19.970;2022-09-03T02:27:03;29.70;23.90
21085;DHT22;34247;50.064;19.970;2022-09-03T02:28:07;29.70;23.90
21085;DHT22;34247;50.064;19.970;2022-09-03T02:29:20;29.70;23.90
21085;DHT22;34247;50.064;19.970;2022-09-03T02:30:24;29.70;24.50
21085;DHT22;34247;50.064;19.970;2022-09-03T02:31:28;29.70;23.90
21085;DHT22;34247;50.064;19.970;2022-09-03T02:32:32;29.60;23.80
21085;DHT22;34247;50.064;19.970;2022-09-03T02:33:38;29.70;23.90
21085;DHT22;34247;50.064;19.970;2022-09-03T02:34:45;29.70;23.90
21085;DHT22;34247;50.064;19.970;2022-09-03T02:35:50;29.60;23.80
21085;DHT22;34247;50.064;19.970;2022-09-03T02:36:54;29.60;23.90
21085;DHT22;34247;50.064;19.970;2022-09-03T02:38:14;29.60;23.90
21085;DHT22;34247;50.064;19.970;2022-09-03T02:39:23;29.60;23.90
21085;DHT22;34247;50.064;19.970;2022-09-03T02:40:26;29.70;24.00
21085;DHT22;34247;50.064;19.970;2022-09-03T02:41:31;29.60;24.00
21085;DHT22;34247;50.064;19.970;2022-09-03T02:42:35;29.60;24.00
21085;DHT22;34247;50.064;19.970;2022-09-03T02:43:44;29.60;24.00
21085;DHT22;34247;50.064;19.970;2022-09-03T02:45:00;29.60;24.00
21085;DHT22;34247;50.064;19.970;2022-09-03T02:46:26;29.60;24.00
21085;DHT22;34247;50.064;19.970;2022-09-03T02:47:37;29.60;24.10
21085;DHT22;34247;50.064;19.970;2022-09-03T02:48:46;29.60;24.10
21085;DHT22;34247;50.064;19.970;2022-09-03T02:49:49;29.60;24.10
21085;DHT22;34247;50.064;19.970;2022-09-03T02:50:53;29.50;24.10
21085;DHT22;34247;50.064;19.970;2022-09-03T02:52:03;29.50;24.10
21085;DHT22;34247;50.064;19.970;2022-09-03T02:53:09;29.50;24.10
21085;DHT22;34247;50.064;19.970;2022-09-03T02:54:12;29.50;24.10
21085;DHT22;34247;50.064;19.970;2022-09-03T02:55:22;29.50;24.10
21085;DHT22;34247;50.064;19.970;2022-09-03T02:56:26;29.50;24.10
21085;DHT22;34247;50.064;19.970;2022-09-03T02:57:30;29.50;24.20
21085;DHT22;34247;50.064;19.970;2022-09-03T02:58:34;29.50;24.20
21085;DHT22;34247;50.064;19.970;2022-09-03T02:59:38;29.50;24.20
21085;DHT22;34247;50.064;19.970;2022-09-03T03:00:43;29.50;24.20
21085;DHT22;34247;50.064;19.970;2022-09-03T03:01:47;29.50;24.30
21085;DHT22;34247;50.064;19.970;2022-09-03T03:02:51;29.50;24.20
21085;DHT22;34247;50.064;19.970;2022-09-03T03:03:57;29.50;24.20
21085;DHT22;34247;50.064;19.970;2022-09-03T03:05:01;29.50;24.30
21085;DHT22;34247;50.064;19.970;2022-09-03T03:06:05;29.50;24.30
21085;DHT22;34247;50.064;19.970;2022-09-03T03:07:09;29.50;24.30
21085;DHT22;34247;50.064;19.970;2022-09-03T03:08:13;29.50;24.40
21085;DHT22;34247;50.064;19.970;2022-09-03T03:09:23;29.40;24.40
21085;DHT22;34247;50.064;19.970;2022-09-03T03:10:27;29.40;24.40
21085;DHT22;34247;50.064;19.970;2022-09-03T03:11:31;29.40;24.40
21085;DHT22;34247;50.064;19.970;2022-09-03T03:12:35;29.50;24.50
21085;DHT22;34247;50.064;19.970;2022-09-03T03:13:39;29.40;24.40
21085;DHT22;34247;50.064;19.970;2022-09-03T03:14:43;29.40;24.50
21085;DHT22;34247;50.064;19.970;2022-09-03T03:15:47;29.40;24.50
21085;DHT22;34247;50.064;19.970;2022-09-03T03:16:51;29.40;24.50
21085;DHT22;34247;50.064;19.970;2022-09-03T03:17:55;29.40;24.60
21085;DHT22;34247;50.064;19.970;2022-09-03T03:18:59;29.40;24.60
21085;DHT22;34247;50.064;19.970;2022-09-03T03:20:03;29.40;24.60
21085;DHT22;34247;50.064;19.970;2022-09-03T03:21:09;29.40;24.70
21085;DHT22;34247;50.064;19.970;2022-09-03T03:22:14;29.40;24.80
21085;DHT22;34247;50.064;19.970;2022-09-03T03:23:18;29.40;24.80
21085;DHT22;34247;50.064;19.970;2022-09-03T03:24:22;29.40;24.80
21085;DHT22;34247;50.064;19.970;2022-09-03T03:25:26;29.40;24.70
21085;DHT22;34247;50.064;19.970;2022-09-03T03:26:29;29.40;24.80
21085;DHT22;34247;50.064;19.970;2022-09-03T03:27:33;29.40;24.90
21085;DHT22;34247;50.064;19.970;2022-09-03T03:28:39;29.30;24.90
21085;DHT22;34247;50.064;19.970;2022-09-03T03:29:44;29.30;25.00
21085;DHT22;34247;50.064;19.970;2022-09-03T03:30:48;29.30;25.00
21085;DHT22;34247;50.064;19.970;2022-09-03T03:31:52;29.30;25.00
21085;DHT22;34247;50.064;19.970;2022-09-03T03:32:56;29.30;25.50
21085;DHT22;34247;50.064;19.970;2022-09-03T03:34:01;29.30;25.10
21085;DHT22;34247;50.064;19.970;2022-09-03T03:35:06;29.20;25.00
21085;DHT22;34247;50.064;19.970;2022-09-03T03:36:13;29.20;25.10
21085;DHT22;34247;50.064;19.970;2022-09-03T03:37:18;29.20;25.10
21085;DHT22;34247;50.064;19.970;2022-09-03T03:38:21;29.20;25.20
21085;DHT22;34247;50.064;19.970;2022-09-03T03:39:25;29.20;25.20
21085;DHT22;34247;50.064;19.970;2022-09-03T03:40:29;29.10;25.20
21085;DHT22;34247;50.064;19.970;2022-09-03T03:41:35;29.20;25.30
21085;DHT22;34247;50.064;19.970;2022-09-03T03:42:38;29.20;25.40
21085;DHT22;34247;50.064;19.970;2022-09-03T03:43:43;29.10;25.30
21085;DHT22;34247;50.064;19.970;2022-09-03T03:44:47;29.10;25.40
21085;DHT22;34247;50.064;19.970;2022-09-03T03:45:59;29.10;25.40
21085;DHT22;34247;50.064;19.970;2022-09-03T03:47:03;29.10;25.40
21085;DHT22;34247;50.064;19.970;2022-09-03T03:48:08;29.10;25.50
21085;DHT22;34247;50.064;19.970;2022-09-03T03:49:11;29.10;25.50
21085;DHT22;34247;50.064;19.970;2022-09-03T03:50:15;29.10;25.60
21085;DHT22;34247;50.064;19.970;2022-09-03T03:51:19;29.10;25.60
21085;DHT22;34247;50.064;19.970;2022-09-03T03:52:24;29.10;25.60
21085;DHT22;34247;50.064;19.970;2022-09-03T03:53:30;29.10;25.70
21085;DHT22;34247;50.064;19.970;2022-09-03T03:54:33;29.10;25.70
21085;DHT22;34247;50.064;19.970;2022-09-03T03:55:37;29.10;25.70
21085;DHT22;34247;50.064;19.970;2022-09-03T03:56:41;29.10;25.70
21085;DHT22;34247;50.064;19.970;2022-09-03T03:57:45;29.10;25.80
21085;DHT22;34247;50.064;19.970;2022-09-03T03:58:48;29.10;25.80
21085;DHT22;34247;50.064;19.970;2022-09-03T03:59:52;29.10;25.80
21085;DHT22;34247;50.064;19.970;2022-09-03T04:01:06;29.00;25.80
21085;DHT22;34247;50.064;19.970;2022-09-03T04:02:12;29.10;25.80
21085;DHT22;34247;50.064;19.970;2022-09-03T04:03:17;29.00;25.80
21085;DHT22;34247;50.064;19.970;2022-09-03T04:04:21;29.10;25.90
21085;DHT22;34247;50.064;19.970;2022-09-03T04:05:25;29.10;25.80
21085;DHT22;34247;50.064;19.970;2022-09-03T04:06:28;29.00;25.90
21085;DHT22;34247;50.064;19.970;2022-09-03T04:07:32;29.00;25.90
21085;DHT22;34247;50.064;19.970;2022-09-03T04:08:38;29.00;25.90
21085;DHT22;34247;50.064;19.970;2022-09-03T04:09:42;29.00;26.00
21085;DHT22;34247;50.064;19.970;2022-09-03T04:10:46;29.00;26.00
21085;DHT22;34247;50.064;19.970;2022-09-03T04:11:51;29.00;26.00
21085;DHT22;34247;50.064;19.970;2022-09-03T04:12:54;29.00;26.00
21085;DHT22;34247;50.064;19.970;2022-09-03T04:13:58;29.00;26.10
21085;DHT22;34247;50.064;19.970;2022-09-03T04:15:02;29.00;26.10
21085;DHT22;34247;50.064;19.970;2022-09-03T04:16:11;29.00;26.10
21085;DHT22;34247;50.064;19.970;2022-09-03T04:17:17;28.90;26.10
21085;DHT22;34247;50.064;19.970;2022-09-03T04:18:27;29.00;26.10
21085;DHT22;34247;50.064;19.970;2022-09-03T04:19:32;28.90;26.20
21085;DHT22;34247;50.064;19.970;2022-09-03T04:20:35;28.90;26.20
21085;DHT22;34247;50.064;19.970;2022-09-03T04:21:39;28.90;26.20
21085;DHT22;34247;50.064;19.970;2022-09-03T04:22:43;28.90;26.20
21085;DHT22;34247;50.064;19.970;2022-09-03T04:23:52;28.90;26.30
21085;DHT22;34247;50.064;19.970;2022-09-03T04:24:56;28.90;26.20
21085;DHT22;34247;50.064;19.970;2022-09-03T04:26:00;28.90;26.30
21085;DHT22;34247;50.064;19.970;2022-09-03T04:27:04;28.90;26.30
21085;DHT22;34247;50.064;19.970;2022-09-03T04:28:07;28.90;26.30
21085;DHT22;34247;50.064;19.970;2022-09-03T04:29:11;28.90;26.30
21085;DHT22;34247;50.064;19.970;2022-09-03T04:30:15;28.90;26.40
21085;DHT22;34247;50.064;19.970;2022-09-03T04:31:20;28.90;26.40
21085;DHT22;34247;50.064;19.970;2022-09-03T04:32:24;28.80;26.40
21085;DHT22;34247;50.064;19.970;2022-09-03T04:33:46;28.90;26.50
21085;DHT22;34247;50.064;19.970;2022-09-03T04:34:50;28.80;26.40
21085;DHT22;34247;50.064;19.970;2022-09-03T04:36:04;28.80;26.50
21085;DHT22;34247;50.064;19.970;2022-09-03T04:37:12;28.80;26.50
21085;DHT22;34247;50.064;19.970;2022-09-03T04:38:18;28.80;26.50
21085;DHT22;34247;50.064;19.970;2022-09-03T04:39:22;28.80;26.60
21085;DHT22;34247;50.064;19.970;2022-09-03T04:40:26;28.80;26.60
21085;DHT22;34247;50.064;19.970;2022-09-03T04:41:30;28.80;26.60
21085;DHT22;34247;50.064;19.970;2022-09-03T04:42:34;28.80;26.60
21085;DHT22;34247;50.064;19.970;2022-09-03T04:43:38;28.80;26.70
21085;DHT22;34247;50.064;19.970;2022-09-03T04:44:44;28.80;26.70
21085;DHT22;34247;50.064;19.970;2022-09-03T04:45:48;28.80;26.70
21085;DHT22;34247;50.064;19.970;2022-09-03T04:46:51;28.80;26.70
21085;DHT22;34247;50.064;19.970;2022-09-03T04:47:57;28.80;26.80
21085;DHT22;34247;50.064;19.970;2022-09-03T04:49:02;28.80;26.80
21085;DHT22;34247;50.064;19.970;2022-09-03T04:50:06;28.80;26.90
21085;DHT22;34247;50.064;19.970;2022-09-03T04:51:12;28.80;26.90
21085;DHT22;34247;50.064;19.970;2022-09-03T04:52:17;28.80;26.90
21085;DHT22;34247;50.064;19.970;2022-09-03T04:53:21;28.80;26.90
21085;DHT22;34247;50.064;19.970;2022-09-03T04:54:25;28.80;27.00
21085;DHT22;34247;50.064;19.970;2022-09-03T04:55:35;28.80;27.50
21085;DHT22;34247;50.064;19.970;2022-09-03T04:56:39;28.80;27.00
21085;DHT22;34247;50.064;19.970;2022-09-03T04:57:43;28.80;27.00
21085;DHT22;34247;50.064;19.970;2022-09-03T04:58:48;28.80;27.00
21085;DHT22;34247;50.064;19.970;2022-09-03T04:59:57;28.90;27.10
21085;DHT22;34247;50.064;19.970;2022-09-03T05:01:07;28.90;27.10
21085;DHT22;34247;50.064;19.970;2022-09-03T05:02:11;28.90;27.40
21085;DHT22;34247;50.064;19.970;2022-09-03T05:03:16;28.90;27.10
21085;DHT22;34247;50.064;19.970;2022-09-03T05:04:20;28.90;27.20
21085;DHT22;34247;50.064;19.970;2022-09-03T05:05:23;28.90;27.20
21085;DHT22;34247;50.064;19.970;2022-09-03T05:06:29;29.00;27.20
21085;DHT22;34247;50.064;19.970;2022-09-03T05:07:33;29.00;27.30
21085;DHT22;34247;50.064;19.970;2022-09-03T05:08:40;29.00;27.30
21085;DHT22;34247;50.064;19.970;2022-09-03T05:09:49;29.00;27.30
21085;DHT22;34247;50.064;19.970;2022-09-03T05:10:59;29.10;27.30
21085;DHT22;34247;50.064;19.970;2022-09-03T05:12:03;29.10;27.20
21085;DHT22;34247;50.064;19.970;2022-09-03T05:13:08;29.10;27.20
21085;DHT22;34247;50.064;19.970;2022-09-03T05:14:11;29.10;27.20
21085;DHT22;34247;50.064;19.970;2022-09-03T05:15:15;29.10;27.80
21085;DHT22;34247;50.064;19.970;2022-09-03T05:16:19;29.10;27.20
21085;DHT22;34247;50.064;19.970;2022-09-03T05:17:26;29.20;27.30
21085;DHT22;34247;50.064;19.970;2022-09-03T05:18:30;29.20;27.30
21085;DHT22;34247;50.064;19.970;2022-09-03T05:19:34;29.20;27.30
21085;DHT22;34247;50.064;19.970;2022-09-03T05:20:37;29.20;27.40
21085;DHT22;34247;50.064;19.970;2022-09-03T05:21:41;29.20;27.40
21085;DHT22;34247;50.064;19.970;2022-09-03T05:22:45;29.30;27.40
21085;DHT22;34247;50.064;19.970;2022-09-03T05:23:49;29.30;27.30
21085;DHT22;34247;50.064;19.970;2022-09-03T05:24:54;29.30;27.30
21085;DHT22;34247;50.064;19.970;2022-09-03T05:26:03;29.30;27.30
21085;DHT22;34247;50.064;19.970;2022-09-03T05:27:16;29.30;27.30
21085;DHT22;34247;50.064;19.970;2022-09-03T05:28:19;29.40;27.40
21085;DHT22;34247;50.064;19.970;2022-09-03T05:29:23;29.40;27.40
21085;DHT22;34247;50.064;19.970;2022-09-03T05:30:28;29.40;27.50
21085;DHT22;34247;50.064;19.970;2022-09-03T05:31:34;29.50;27.50
21085;DHT22;34247;50.064;19.970;2022-09-03T05:32:41;29.50;27.50
21085;DHT22;34247;50.064;19.970;2022-09-03T05:33:50;29.60;27.50
21085;DHT22;34247;50.064;19.970;2022-09-03T05:34:55;29.60;27.50
21085;DHT22;34247;50.064;19.970;2022-09-03T05:36:03;29.60;27.40
21085;DHT22;34247;50.064;19.970;2022-09-03T05:37:10;29.60;27.30
21085;DHT22;34247;50.064;19.970;2022-09-03T05:38:14;29.60;27.40
21085;DHT22;34247;50.064;19.970;2022-09-03T05:39:19;29.60;27.40
21085;DHT22;34247;50.064;19.970;2022-09-03T05:40:22;29.60;27.40
21085;DHT22;34247;50.064;19.970;2022-09-03T05:41:27;29.60;27.40
21085;DHT22;34247;50.064;19.970;2022-09-03T05:42:32;29.60;27.50
21085;DHT22;34247;50.064;19.970;2022-09-03T05:43:37;29.60;27.50
21085;DHT22;34247;50.064;19.970;2022-09-03T05:44:41;29.60;27.60
21085;DHT22;34247;50.064;19.970;2022-09-03T05:45:46;29.60;27.50
21085;DHT22;34247;50.064;19.970;2022-09-03T05:46:51;29.60;27.60
21085;DHT22;34247;50.064;19.970;2022-09-03T05:47:59;29.60;27.60
21085;DHT22;34247;50.064;19.970;2022-09-03T05:49:05;29.60;27.70
21085;DHT22;34247;50.064;19.970;2022-09-03T05:50:09;29.60;28.20
21085;DHT22;34247;50.064;19.970;2022-09-03T05:51:17;29.60;27.70
21085;DHT22;34247;50.064;19.970;2022-09-03T05:52:22;29.60;27.70
21085;DHT22;34247;50.064;19.970;2022-09-03T05:53:27;29.60;27.70
21085;DHT22;34247;50.064;19.970;2022-09-03T05:54:31;29.60;27.80
21085;DHT22;34247;50.064;19.970;2022-09-03T05:55:35;29.60;27.80
21085;DHT22;34247;50.064;19.970;2022-09-03T05:56:39;29.70;27.90
21085;DHT22;34247;50.064;19.970;2022-09-03T05:57:44;29.70;27.90
21085;DHT22;34247;50.064;19.970;2022-09-03T05:58:57;29.60;27.80
21085;DHT22;34247;50.064;19.970;2022-09-03T06:00:08;29.60;27.90
21085;DHT22;34247;50.064;19.970;2022-09-03T06:01:15;29.70;28.00
21085;DHT22;34247;50.064;19.970;2022-09-03T06:02:19;29.70;28.10
21085;DHT22;34247;50.064;19.970;2022-09-03T06:03:23;29.70;28.00
21085;DHT22;34247;50.064;19.970;2022-09-03T06:04:27;29.70;28.20
21085;DHT22;34247;50.064;19.970;2022-09-03T06:05:31;29.70;28.10
21085;DHT22;34247;50.064;19.970;2022-09-03T06:06:36;29.80;28.10
21085;DHT22;34247;50.064;19.970;2022-09-03T06:07:41;29.80;28.70
21085;DHT22;34247;50.064;19.970;2022-09-03T06:08:47;29.70;28.20
21085;DHT22;34247;50.064;19.970;2022-09-03T06:09:53;29.80;28.20
21085;DHT22;34247;50.064;19.970;2022-09-03T06:10:58;29.80;28.30
21085;DHT22;34247;50.064;19.970;2022-09-03T06:12:03;29.90;28.30
21085;DHT22;34247;50.064;19.970;2022-09-03T06:13:07;29.90;28.30
21085;DHT22;34247;50.064;19.970;2022-09-03T06:14:12;30.00;28.30
21085;DHT22;34247;50.064;19.970;2022-09-03T06:15:16;30.00;28.40
21085;DHT22;34247;50.064;19.970;2022-09-03T06:16:20;30.10;28.30
21085;DHT22;34247;50.064;19.970;2022-09-03T06:17:34;30.20;28.30
21085;DHT22;34247;50.064;19.970;2022-09-03T06:18:39;30.20;28.20
21085;DHT22;34247;50.064;19.970;2022-09-03T06:19:43;30.30;28.40
21085;DHT22;34247;50.064;19.970;2022-09-03T06:20:57;30.40;28.30
21085;DHT22;34247;50.064;19.970;2022-09-03T06:22:02;30.50;28.10
21085;DHT22;34247;50.064;19.970;2022-09-03T06:23:06;30.60;28.00
21085;DHT22;34247;50.064;19.970;2022-09-03T06:24:14;30.70;27.90
21085;DHT22;34247;50.064;19.970;2022-09-03T06:25:20;30.80;27.90
21085;DHT22;34247;50.064;19.970;2022-09-03T06:26:24;30.90;27.90
21085;DHT22;34247;50.064;19.970;2022-09-03T06:27:30;30.90;27.70
21085;DHT22;34247;50.064;19.970;2022-09-03T06:28:35;31.00;27.70
21085;DHT22;34247;50.064;19.970;2022-09-03T06:29:40;31.10;27.50
21085;DHT22;34247;50.064;19.970;2022-09-03T06:30:44;31.10;27.50
21085;DHT22;34247;50.064;19.970;2022-09-03T06:31:47;31.20;27.40
21085;DHT22;34247;50.064;19.970;2022-09-03T06:32:53;31.30;27.30
21085;DHT22;34247;50.064;19.970;2022-09-03T06:33:56;31.40;27.30
21085;DHT22;34247;50.064;19.970;2022-09-03T06:35:06;31.40;27.30
21085;DHT22;34247;50.064;19.970;2022-09-03T06:36:12;31.40;27.20
21085;DHT22;34247;50.064;19.970;2022-09-03T06:37:18;31.50;27.10
21085;DHT22;34247;50.064;19.970;2022-09-03T06:38:21;31.50;27.10
21085;DHT22;34247;50.064;19.970;2022-09-03T06:39:26;31.50;27.10
21085;DHT22;34247;50.064;19.970;2022-09-03T06:40:29;31.50;27.10
21085;DHT22;34247;50.064;19.970;2022-09-03T06:41:33;31.50;27.10
21085;DHT22;34247;50.064;19.970;2022-09-03T06:42:39;31.50;27.10
21085;DHT22;34247;50.064;19.970;2022-09-03T06:43:47;31.50;27.10
21085;DHT22;34247;50.064;19.970;2022-09-03T06:44:51;31.50;27.20
21085;DHT22;34247;50.064;19.970;2022-09-03T06:46:00;31.60;27.30
21085;DHT22;34247;50.064;19.970;2022-09-03T06:47:05;31.60;27.30
21085;DHT22;34247;50.064;19.970;2022-09-03T06:48:09;31.60;27.20
21085;DHT22;34247;50.064;19.970;2022-09-03T06:49:12;31.60;27.30
21085;DHT22;34247;50.064;19.970;2022-09-03T06:50:16;31.60;27.20
21085;DHT22;34247;50.064;19.970;2022-09-03T06:51:23;31.50;27.20
21085;DHT22;34247;50.064;19.970;2022-09-03T06:52:28;31.50;27.20
21085;DHT22;34247;50.064;19.970;2022-09-03T06:53:34;31.50;27.30
21085;DHT22;34247;50.064;19.970;2022-09-03T06:54:40;31.50;27.30
21085;DHT22;34247;50.064;19.970;2022-09-03T06:55:55;31.50;27.30
21085;DHT22;34247;50.064;19.970;2022-09-03T06:57:03;31.50;27.40
21085;DHT22;34247;50.064;19.970;2022-09-03T06:58:07;31.40;27.50
21085;DHT22;34247;50.064;19.970;2022-09-03T06:59:14;31.50;27.60
21085;DHT22;34247;50.064;19.970;2022-09-03T07:00:17;31.50;27.60
21085;DHT22;34247;50.064;19.970;2022-09-03T07:01:23;31.50;27.60
21085;DHT22;34247;50.064;19.970;2022-09-03T07:02:28;31.50;27.70
21085;DHT22;34247;50.064;19.970;2022-09-03T07:03:36;31.50;27.70
21085;DHT22;34247;50.064;19.970;2022-09-03T07:04:41;31.50;27.80
21085;DHT22;34247;50.064;19.970;2022-09-03T07:05:46;31.50;27.90
21085;DHT22;34247;50.064;19.970;2022-09-03T07:06:50;31.50;27.90
21085;DHT22;34247;50.064;19.970;2022-09-03T07:07:53;31.50;27.90
21085;DHT22;34247;50.064;19.970;2022-09-03T07:08:57;31.50;27.80
21085;DHT22;34247;50.064;19.970;2022-09-03T07:10:01;31.50;27.80
21085;DHT22;34247;50.064;19.970;2022-09-03T07:11:08;31.60;27.80
21085;DHT22;34247;50.064;19.970;2022-09-03T07:12:13;31.60;27.80
21085;DHT22;34247;50.064;19.970;2022-09-03T07:13:21;31.70;27.80
21085;DHT22;34247;50.064;19.970;2022-09-03T07:14:24;31.70;27.70
21085;DHT22;34247;50.064;19.970;2022-09-03T07:15:29;31.70;27.70
21085;DHT22;34247;50.064;19.970;2022-09-03T07:16:35;31.80;27.60
21085;DHT22;34247;50.064;19.970;2022-09-03T07:17:39;31.80;27.70
21085;DHT22;34247;50.064;19.970;2022-09-03T07:18:43;31.80;27.60
21085;DHT22;34247;50.064;19.970;2022-09-03T07:19:47;31.80;27.60
21085;DHT22;34247;50.064;19.970;2022-09-03T07:20:51;31.70;27.60
21085;DHT22;34247;50.064;19.970;2022-09-03T07:21:59;31.80;27.60
21085;DHT22;34247;50.064;19.970;2022-09-03T07:23:03;31.80;27.60
21085;DHT22;34247;50.064;19.970;2022-09-03T07:24:07;31.70;27.60
21085;DHT22;34247;50.064;19.970;2022-09-03T07:25:12;31.80;27.70
21085;DHT22;34247;50.064;19.970;2022-09-03T07:26:22;31.70;27.60
21085;DHT22;34247;50.064;19.970;2022-09-03T07:27:28;31.70;27.60
21085;DHT22;34247;50.064;19.970;2022-09-03T07:28:34;31.70;27.50
21085;DHT22;34247;50.064;19.970;2022-09-03T07:29:39;31.70;27.60
21085;DHT22;34247;50.064;19.970;2022-09-03T07:30:43;31.70;27.70
21085;DHT22;34247;50.064;19.970;2022-09-03T07:31:47;31.80;27.80
21085;DHT22;34247;50.064;19.970;2022-09-03T07:32:56;31.70;27.70
21085;DHT22;34247;50.064;19.970;2022-09-03T07:34:09;31.70;27.80
21085;DHT22;34247;50.064;19.970;2022-09-03T07:35:14;31.70;27.80
21085;DHT22;34247;50.064;19.970;2022-09-03T07:36:18;31.70;27.80
21085;DHT22;34247;50.064;19.970;2022-09-03T07:37:22;31.70;27.90
21085;DHT22;34247;50.064;19.970;2022-09-03T07:38:25;31.70;27.90
21085;DHT22;34247;50.064;19.970;2022-09-03T07:39:29;31.60;27.80
21085;DHT22;34247;50.064;19.970;2022-09-03T07:40:32;31.70;27.90
21085;DHT22;34247;50.064;19.970;2022-09-03T07:41:36;31.70;27.80
21085;DHT22;34247;50.064;19.970;2022-09-03T07:42:41;31.80;27.60
21085;DHT22;34247;50.064;19.970;2022-09-03T07:43:45;31.80;27.60
21085;DHT22;34247;50.064;19.970;2022-09-03T07:44:49;31.80;27.70
21085;DHT22;34247;50.064;19.970;2022-09-03T07:45:52;31.70;28.00
21085;DHT22;34247;50.064;19.970;2022-09-03T07:46:58;31.80;27.40
21085;DHT22;34247;50.064;19.970;2022-09-03T07:48:02;31.80;27.30
21085;DHT22;34247;50.064;19.970;2022-09-03T07:49:06;31.70;27.30
21085;DHT22;34247;50.064;19.970;2022-09-03T07:50:10;31.70;27.40
21085;DHT22;34247;50.064;19.970;2022-09-03T07:51:14;31.70;27.50
21085;DHT22;34247;50.064;19.970;2022-09-03T07:52:18;31.70;27.50
21085;DHT22;34247;50.064;19.970;2022-09-03T07:53:21;31.60;27.60
21085;DHT22;34247;50.064;19.970;2022-09-03T07:54:25;31.70;27.60
21085;DHT22;34247;50.064;19.970;2022-09-03T07:55:29;31.70;27.50
21085;DHT22;34247;50.064;19.970;2022-09-03T07:56:34;31.70;27.50
21085;DHT22;34247;50.064;19.970;2022-09-03T07:57:38;31.70;27.50